createdAt,value
2023-02-01T00:01:12.297Z,8.19
2023-02-01T00:03:39.920Z,8.15
2023-02-01T00:06:07.493Z,8.07
2023-02-01T00:08:35.970Z,8.11
2023-02-01T00:11:10.876Z,8.11
2023-02-01T00:13:41.874Z,8.18
2023-02-01T00:16:21.978Z,8.20
2023-02-01T00:18:52.775Z,8.20
2023-02-01T00:21:21.746Z,8.22
2023-02-01T00:23:49.623Z,8.25
2023-02-01T00:26:23.740Z,8.30
2023-02-01T00:28:51.273Z,8.25
2023-02-01T00:31:18.999Z,8.32
2023-02-01T00:33:49.270Z,8.17
2023-02-01T00:36:17.758Z,8.17
2023-02-01T00:38:45.421Z,8.32
2023-02-01T00:41:18.474Z,8.26
2023-02-01T00:43:47.276Z,8.35
2023-02-01T00:46:16.990Z,8.34
2023-02-01T00:48:44.770Z,8.42
2023-02-01T00:51:17.027Z,8.40
2023-02-01T00:53:44.907Z,8.41
2023-02-01T00:56:12.999Z,8.38
2023-02-01T00:58:45.259Z,8.40
2023-02-01T01:01:24.134Z,8.39
2023-02-01T01:03:56.622Z,8.35
2023-02-01T01:06:30.884Z,8.28
2023-02-01T01:09:01.202Z,8.16
2023-02-01T01:11:33.004Z,8.19
2023-02-01T01:14:01.213Z,8.16
2023-02-01T01:16:31.945Z,8.13
2023-02-01T01:19:00.887Z,8.12
2023-02-01T01:21:28.684Z,8.11
2023-02-01T01:23:57.079Z,8.13
2023-02-01T01:26:28.565Z,8.14
2023-02-01T01:28:58.011Z,8.16
2023-02-01T01:31:25.808Z,8.21
2023-02-01T01:33:57.171Z,8.20
2023-02-01T01:36:27.756Z,8.20
2023-02-01T01:38:55.369Z,8.30
2023-02-01T01:41:29.110Z,8.35
2023-02-01T01:44:05.301Z,8.37
2023-02-01T01:46:36.601Z,8.37
2023-02-01T01:49:21.535Z,8.32
2023-02-01T01:51:58.276Z,8.38
2023-02-01T01:54:44.135Z,8.35
2023-02-01T01:57:41.100Z,8.36
2023-02-01T02:00:14.043Z,8.43
2023-02-01T02:02:48.389Z,8.46
2023-02-01T02:05:18.136Z,8.49
2023-02-01T02:07:49.723Z,8.46
2023-02-01T02:10:18.187Z,8.50
2023-02-01T02:12:48.892Z,8.54
2023-02-01T02:15:18.013Z,8.50
2023-02-01T02:18:30.267Z,8.50
2023-02-01T02:21:36.491Z,8.52
2023-02-01T02:24:50.440Z,8.47
2023-02-01T02:27:55.865Z,8.50
2023-02-01T02:31:17.508Z,8.46
2023-02-01T02:34:29.945Z,8.45
2023-02-01T02:37:04.452Z,8.46
2023-02-01T02:40:07.669Z,8.44
2023-02-01T02:43:19.051Z,8.45
2023-02-01T02:46:21.139Z,8.43
2023-02-01T02:49:30.177Z,8.36
2023-02-01T02:52:59.144Z,8.33
2023-02-01T02:55:29.425Z,8.35
2023-02-01T02:58:18.180Z,8.35
2023-02-01T03:01:05.528Z,8.38
2023-02-01T03:03:55.121Z,8.37
2023-02-01T03:06:25.267Z,8.29
2023-02-01T03:08:57.821Z,8.24
2023-02-01T03:11:46.495Z,8.22
2023-02-01T03:14:16.400Z,8.25
2023-02-01T03:16:55.090Z,8.17
2023-02-01T03:19:51.385Z,8.20
2023-02-01T03:22:27.904Z,8.16
2023-02-01T03:25:00.259Z,8.19
2023-02-01T03:27:50.247Z,8.20
2023-02-01T03:30:31.422Z,8.20
2023-02-01T03:33:02.023Z,8.27
2023-02-01T03:36:10.891Z,8.24
2023-02-01T03:38:53.117Z,8.31
2023-02-01T03:41:43.593Z,8.33
2023-02-01T03:44:38.809Z,8.33
2023-02-01T03:47:21.172Z,8.20
2023-02-01T03:50:03.389Z,8.15
2023-02-01T03:52:54.196Z,8.15
2023-02-01T03:55:26.471Z,8.15
2023-02-01T03:58:12.320Z,8.15
2023-02-01T04:00:40.889Z,8.23
2023-02-01T04:03:08.811Z,8.12
2023-02-01T04:05:36.301Z,8.23
2023-02-01T04:08:06.739Z,8.27
2023-02-01T04:10:34.409Z,8.31
2023-02-01T04:13:02.044Z,8.36
2023-02-01T04:15:29.509Z,8.26
2023-02-01T04:17:56.999Z,8.27
2023-02-01T04:20:24.960Z,8.21
2023-02-01T04:22:52.629Z,8.12
2023-02-01T04:25:20.129Z,8.15
2023-02-01T04:27:48.031Z,8.11
2023-02-01T04:30:15.718Z,8.10
2023-02-01T04:32:43.540Z,8.13
2023-02-01T04:35:12.551Z,8.15
2023-02-01T04:37:40.067Z,8.25
2023-02-01T04:40:08.464Z,8.07
2023-02-01T04:42:36.019Z,8.15
2023-02-01T04:45:04.021Z,8.27
2023-02-01T04:47:31.632Z,8.39
2023-02-01T04:49:59.099Z,8.43
2023-02-01T04:52:26.621Z,8.21
2023-02-01T04:54:56.271Z,8.24
2023-02-01T04:57:24.681Z,8.33
2023-02-01T04:59:52.295Z,8.32
2023-02-01T05:02:19.790Z,8.37
2023-02-01T05:04:47.431Z,8.37
2023-02-01T05:07:15.251Z,8.37
2023-02-01T05:09:42.797Z,8.33
2023-02-01T05:12:30.019Z,8.29
2023-02-01T05:14:57.544Z,8.24
2023-02-01T05:17:25.063Z,8.24
2023-02-01T05:19:52.579Z,8.33
2023-02-01T05:22:20.099Z,8.22
2023-02-01T05:24:47.582Z,8.31
2023-02-01T05:27:15.187Z,8.04
2023-02-01T05:29:42.674Z,8.22
2023-02-01T05:32:22.282Z,8.37
2023-02-01T05:34:50.837Z,8.37
2023-02-01T05:37:18.394Z,8.34
2023-02-01T05:39:45.933Z,8.27
2023-02-01T05:42:13.468Z,8.22
2023-02-01T05:44:40.998Z,8.19
2023-02-01T05:47:08.886Z,7.99
2023-02-01T05:49:36.533Z,8.19
2023-02-01T05:52:04.599Z,7.88
2023-02-01T05:54:32.197Z,7.95
2023-02-01T05:56:59.688Z,7.98
2023-02-01T05:59:28.199Z,8.17
2023-02-01T06:01:55.688Z,8.08
2023-02-01T06:04:23.287Z,8.15
2023-02-01T06:06:51.554Z,7.96
2023-02-01T06:09:19.132Z,7.95
2023-02-01T06:11:46.649Z,8.14
2023-02-01T06:14:14.208Z,8.00
2023-02-01T06:16:41.706Z,7.95
2023-02-01T06:19:09.882Z,8.08
2023-02-01T06:21:37.685Z,8.00
2023-02-01T06:24:05.432Z,7.73
2023-02-01T06:26:34.155Z,8.02
2023-02-01T06:29:01.697Z,8.19
2023-02-01T06:31:29.349Z,8.09
2023-02-01T06:33:56.959Z,8.05
2023-02-01T06:36:24.508Z,8.22
2023-02-01T06:38:52.069Z,7.91
2023-02-01T06:41:21.470Z,7.89
2023-02-01T06:43:49.008Z,7.83
2023-02-01T06:46:16.557Z,7.96
2023-02-01T06:48:44.140Z,7.97
2023-02-01T06:51:24.897Z,8.14
2023-02-01T06:53:52.834Z,8.25
2023-02-01T06:56:21.654Z,7.79
2023-02-01T06:58:49.976Z,7.86
2023-02-01T07:01:18.355Z,7.84
2023-02-01T07:03:52.310Z,8.00
2023-02-01T07:06:20.315Z,8.03
2023-02-01T07:08:47.816Z,8.08
2023-02-01T07:11:18.346Z,8.09
2023-02-01T07:13:46.671Z,7.92
2023-02-01T07:16:18.671Z,7.76
2023-02-01T07:18:47.511Z,7.93
2023-02-01T07:21:15.057Z,7.84
2023-02-01T07:23:42.590Z,8.05
2023-02-01T07:26:13.981Z,7.88
2023-02-01T07:28:42.358Z,7.83
2023-02-01T07:31:14.470Z,7.94
2023-02-01T07:33:42.633Z,8.13
2023-02-01T07:36:14.948Z,8.03
2023-02-01T07:38:43.068Z,7.84
2023-02-01T07:41:11.618Z,7.67
2023-02-01T07:43:39.215Z,7.60
2023-02-01T07:46:07.706Z,7.67
2023-02-01T07:48:35.354Z,7.40
2023-02-01T07:51:10.794Z,7.73
2023-02-01T07:53:38.999Z,7.77
2023-02-01T07:56:23.519Z,7.81
2023-02-01T07:58:53.968Z,7.74
2023-02-01T08:01:25.652Z,7.89
2023-02-01T08:03:56.886Z,7.94
2023-02-01T08:06:25.846Z,7.99
2023-02-01T08:08:55.029Z,7.90
2023-02-01T08:11:24.472Z,8.00
2023-02-01T08:13:52.739Z,8.00
2023-02-01T08:16:21.975Z,8.08
2023-02-01T08:18:49.593Z,7.95
2023-02-01T08:21:24.138Z,8.11
2023-02-01T08:23:52.241Z,8.04
2023-02-01T08:26:26.207Z,8.11
2023-02-01T08:28:58.986Z,8.16
2023-02-01T08:31:29.388Z,8.07
2023-02-01T08:34:00.289Z,8.03
2023-02-01T08:36:30.253Z,7.98
2023-02-01T08:38:58.546Z,7.80
2023-02-01T08:41:30.040Z,8.05
2023-02-01T08:43:58.123Z,8.18
2023-02-01T08:46:25.833Z,8.19
2023-02-01T08:48:53.979Z,8.05
2023-02-01T08:51:24.053Z,7.64
2023-02-01T08:53:52.196Z,7.77
2023-02-01T08:56:20.555Z,7.94
2023-02-01T08:58:48.060Z,7.95
2023-02-01T09:01:17.798Z,7.70
2023-02-01T09:03:45.849Z,7.78
2023-02-01T09:06:15.428Z,7.63
2023-02-01T09:08:44.079Z,7.49
2023-02-01T09:11:20.113Z,7.71
2023-02-01T09:13:48.554Z,7.81
2023-02-01T09:16:16.930Z,7.61
2023-02-01T09:18:55.580Z,7.53
2023-02-01T09:21:30.166Z,7.78
2023-02-01T09:23:57.846Z,7.91
2023-02-01T09:26:31.844Z,7.52
2023-02-01T09:29:01.153Z,7.67
2023-02-01T09:31:28.853Z,7.61
2023-02-01T09:33:57.063Z,7.97
2023-02-01T09:36:24.853Z,8.03
2023-02-01T09:38:53.834Z,8.14
2023-02-01T09:41:41.043Z,7.95
2023-02-01T09:44:48.714Z,7.89
2023-02-01T09:47:20.579Z,7.58
2023-02-01T09:50:22.500Z,7.98
2023-02-01T09:53:22.581Z,8.18
2023-02-01T09:55:54.905Z,7.86
2023-02-01T09:58:35.780Z,8.03
2023-02-01T10:01:06.211Z,8.08
2023-02-01T10:03:37.350Z,8.13
2023-02-01T10:06:50.919Z,8.16
2023-02-01T10:09:56.575Z,8.11
2023-02-01T10:12:56.471Z,7.99
2023-02-01T10:15:40.711Z,7.67
2023-02-01T10:18:15.053Z,7.67
2023-02-01T10:21:12.672Z,7.89
2023-02-01T10:24:20.988Z,7.89
2023-02-01T10:27:22.745Z,7.86
2023-02-01T10:30:00.204Z,7.53
2023-02-01T10:32:35.650Z,8.11
2023-02-01T10:35:18.798Z,8.07
2023-02-01T10:37:47.691Z,8.11
2023-02-01T10:40:26.255Z,8.37
2023-02-01T10:43:01.006Z,8.39
2023-02-01T10:45:34.379Z,8.44
2023-02-01T10:48:04.936Z,8.33
2023-02-01T10:50:59.583Z,8.12
2023-02-01T10:54:10.051Z,8.12
2023-02-01T10:56:39.619Z,8.32
2023-02-01T10:59:16.779Z,8.21
2023-02-01T11:01:48.524Z,8.53
2023-02-01T11:04:20.991Z,8.56
2023-02-01T11:07:09.520Z,8.65
2023-02-01T11:09:41.656Z,8.73
2023-02-01T11:12:33.634Z,8.66
2023-02-01T11:15:19.684Z,8.47
2023-02-01T11:17:52.523Z,8.45
2023-02-01T11:20:33.698Z,8.42
2023-02-01T11:23:02.208Z,8.62
2023-02-01T11:25:38.143Z,8.64
2023-02-01T11:28:06.531Z,8.55
2023-02-01T11:30:41.149Z,8.70
2023-02-01T11:33:26.429Z,8.45
2023-02-01T11:35:54.151Z,8.51
2023-02-01T11:38:33.790Z,8.38
2023-02-01T11:41:28.164Z,8.39
2023-02-01T11:44:16.598Z,8.09
2023-02-01T11:46:44.117Z,8.42
2023-02-01T11:49:24.742Z,8.84
2023-02-01T11:52:27.206Z,8.84
2023-02-01T11:55:06.766Z,9.06
2023-02-01T11:58:16.850Z,8.95
2023-02-01T12:01:08.996Z,8.81
2023-02-01T12:04:13.286Z,8.57
2023-02-01T12:07:06.719Z,8.36
2023-02-01T12:09:57.915Z,8.73
2023-02-01T12:12:49.291Z,8.80
2023-02-01T12:15:40.385Z,8.74
2023-02-01T12:18:35.843Z,8.19
2023-02-01T12:21:47.225Z,8.37
2023-02-01T12:24:35.608Z,8.77
2023-02-01T12:27:31.343Z,8.52
2023-02-01T12:30:10.791Z,8.51
2023-02-01T12:33:02.043Z,8.44
2023-02-01T12:35:38.430Z,8.84
2023-02-01T12:38:36.637Z,8.69
2023-02-01T12:41:34.587Z,8.72
2023-02-01T12:44:27.374Z,8.61
2023-02-01T12:47:29.715Z,8.42
2023-02-01T12:50:17.738Z,8.20
2023-02-01T12:52:54.566Z,8.58
2023-02-01T12:55:42.222Z,8.52
2023-02-01T12:58:55.534Z,8.34
2023-02-01T13:01:31.824Z,8.24
2023-02-01T13:04:25.376Z,8.26
2023-02-01T13:07:04.166Z,8.21
2023-02-01T13:09:54.479Z,8.13
2023-02-01T13:13:04.661Z,8.26
2023-02-01T13:15:41.848Z,8.10
2023-02-01T13:18:20.339Z,8.41
2023-02-01T13:21:07.886Z,8.28
2023-02-01T13:23:41.617Z,8.43
2023-02-01T13:26:09.182Z,8.56
2023-02-01T13:28:44.983Z,8.78
2023-02-01T13:31:36.833Z,8.50
2023-02-01T13:34:47.119Z,8.54
2023-02-01T13:38:05.958Z,8.73
2023-02-01T13:40:50.150Z,8.83
2023-02-01T13:43:27.133Z,8.97
2023-02-01T13:46:07.787Z,9.12
2023-02-01T13:49:05.567Z,8.96
2023-02-01T13:51:49.264Z,8.87
2023-02-01T13:54:39.788Z,8.97
2023-02-01T13:57:40.549Z,8.80
2023-02-01T14:00:34.593Z,8.98
2023-02-01T14:03:09.047Z,9.03
2023-02-01T14:05:39.233Z,9.15
2023-02-01T14:08:06.823Z,9.04
2023-02-01T14:10:48.936Z,9.08
2023-02-01T14:13:36.556Z,8.91
2023-02-01T14:16:04.156Z,8.90
2023-02-01T14:18:38.031Z,8.81
2023-02-01T14:21:34.075Z,8.79
2023-02-01T14:24:10.837Z,8.79
2023-02-01T14:26:38.221Z,8.52
2023-02-01T14:29:21.437Z,8.81
2023-02-01T14:32:00.640Z,8.84
2023-02-01T14:34:58.033Z,8.92
2023-02-01T14:37:32.357Z,8.73
2023-02-01T14:40:13.361Z,8.46
2023-02-01T14:42:41.023Z,8.31
2023-02-01T14:45:31.722Z,8.60
2023-02-01T14:48:08.074Z,8.31
2023-02-01T14:50:47.072Z,8.38
2023-02-01T14:53:21.306Z,8.08
2023-02-01T14:56:05.775Z,7.87
2023-02-01T14:58:59.177Z,7.90
2023-02-01T15:01:34.273Z,8.31
2023-02-01T15:04:17.843Z,8.39
2023-02-01T15:06:50.925Z,8.53
2023-02-01T15:09:31.244Z,8.77
2023-02-01T15:12:15.679Z,8.74
2023-02-01T15:14:50.088Z,8.71
2023-02-01T15:17:24.934Z,8.78
2023-02-01T15:20:02.132Z,8.29
2023-02-01T15:22:32.228Z,8.26
2023-02-01T15:25:01.209Z,8.35
2023-02-01T15:27:38.157Z,8.36
2023-02-01T15:30:18.564Z,8.11
2023-02-01T15:32:46.692Z,8.03
2023-02-01T15:36:17.584Z,8.36
2023-02-01T15:38:46.042Z,8.31
2023-02-01T15:41:19.447Z,8.26
2023-02-01T15:43:55.908Z,8.18
2023-02-01T15:46:39.276Z,8.32
2023-02-01T15:49:32.038Z,8.43
2023-02-01T15:52:02.511Z,8.43
2023-02-01T15:55:02.711Z,8.44
2023-02-01T15:57:36.247Z,8.48
2023-02-01T16:00:23.600Z,8.70
2023-02-01T16:03:33.438Z,8.55
2023-02-01T16:06:13.273Z,8.74
2023-02-01T16:09:11.415Z,8.61
2023-02-01T16:11:59.778Z,8.60
2023-02-01T16:14:28.029Z,8.57
2023-02-01T16:16:58.655Z,8.48
2023-02-01T16:19:29.084Z,8.36
2023-02-01T16:21:57.759Z,8.49
2023-02-01T16:24:26.843Z,8.62
2023-02-01T16:26:54.696Z,8.36
2023-02-01T16:29:22.676Z,8.26
2023-02-01T16:31:51.171Z,8.44
2023-02-01T16:34:21.968Z,8.45
2023-02-01T16:36:57.811Z,8.37
2023-02-01T16:39:25.604Z,8.51
2023-02-01T16:41:53.111Z,8.35
2023-02-01T16:44:20.679Z,8.22
2023-02-01T16:46:49.404Z,8.52
2023-02-01T16:49:25.789Z,8.24
2023-02-01T16:51:59.561Z,8.35
2023-02-01T16:54:27.732Z,8.27
2023-02-01T16:56:55.401Z,8.39
2023-02-01T16:59:22.903Z,8.44
2023-02-01T17:01:50.393Z,8.63
2023-02-01T17:04:18.491Z,8.71
2023-02-01T17:06:48.173Z,8.82
2023-02-01T17:09:16.046Z,8.80
2023-02-01T17:11:43.528Z,8.63
2023-02-01T17:14:22.376Z,8.75
2023-02-01T17:16:51.368Z,8.83
2023-02-01T17:19:24.305Z,8.81
2023-02-01T17:21:56.657Z,8.48
2023-02-01T17:24:35.764Z,8.62
2023-02-01T17:27:06.639Z,8.50
2023-02-01T17:29:34.156Z,8.61
2023-02-01T17:32:03.903Z,8.76
2023-02-01T17:34:33.059Z,8.60
2023-02-01T17:37:00.556Z,8.58
2023-02-01T17:39:46.685Z,8.72
2023-02-01T17:42:14.183Z,8.62
2023-02-01T17:44:41.792Z,8.64
2023-02-01T17:47:09.269Z,8.59
2023-02-01T17:49:38.778Z,8.44
2023-02-01T17:52:09.194Z,8.62
2023-02-01T17:54:37.688Z,8.39
2023-02-01T17:57:14.580Z,8.45
2023-02-01T17:59:42.192Z,8.07
2023-02-01T18:02:22.402Z,8.27
2023-02-01T18:04:51.089Z,8.44
2023-02-01T18:07:18.845Z,8.27
2023-02-01T18:09:46.545Z,8.42
2023-02-01T18:12:23.582Z,8.26
2023-02-01T18:14:51.295Z,8.33
2023-02-01T18:17:18.766Z,8.33
2023-02-01T18:19:46.315Z,8.24
2023-02-01T18:22:24.908Z,8.44
2023-02-01T18:24:52.487Z,8.41
2023-02-01T18:27:19.971Z,8.58
2023-02-01T18:29:47.451Z,8.56
2023-02-01T18:32:15.223Z,8.62
2023-02-01T18:34:42.781Z,8.44
2023-02-01T18:37:10.497Z,8.46
2023-02-01T18:39:39.463Z,8.62
2023-02-01T18:42:10.269Z,8.50
2023-02-01T18:44:37.792Z,8.62
2023-02-01T18:47:05.421Z,8.28
2023-02-01T18:49:32.953Z,8.16
2023-02-01T18:52:00.715Z,8.29
2023-02-01T18:54:28.336Z,8.50
2023-02-01T18:56:55.809Z,8.27
2023-02-01T18:59:23.334Z,8.42
2023-02-01T19:01:50.837Z,8.27
2023-02-01T19:04:19.565Z,8.44
2023-02-01T19:06:53.066Z,8.53
2023-02-01T19:09:20.744Z,8.65
2023-02-01T19:11:48.301Z,8.48
2023-02-01T19:14:15.807Z,8.59
2023-02-01T19:16:43.271Z,8.40
2023-02-01T19:19:10.807Z,8.60
2023-02-01T19:21:38.312Z,8.67
2023-02-01T19:24:06.239Z,8.53
2023-02-01T19:26:33.904Z,8.58
2023-02-01T19:29:01.596Z,8.60
2023-02-01T19:31:29.296Z,8.67
2023-02-01T19:33:56.930Z,8.54
2023-02-01T19:36:26.681Z,8.41
2023-02-01T19:38:54.216Z,8.59
2023-02-01T19:41:21.735Z,8.52
2023-02-01T19:43:49.477Z,8.52
2023-02-01T19:46:17.073Z,8.44
2023-02-01T19:48:44.592Z,8.60
2023-02-01T19:51:12.697Z,8.44
2023-02-01T19:53:40.188Z,8.54
2023-02-01T19:56:07.956Z,8.61
2023-02-01T19:58:35.596Z,8.16
2023-02-01T20:01:03.109Z,8.25
2023-02-01T20:03:30.797Z,8.33
2023-02-01T20:05:59.186Z,8.45
2023-02-01T20:08:27.007Z,8.56
2023-02-01T20:10:54.608Z,8.40
2023-02-01T20:13:22.138Z,8.25
2023-02-01T20:15:57.758Z,8.37
2023-02-01T20:18:26.026Z,8.47
2023-02-01T20:20:58.439Z,8.46
2023-02-01T20:23:28.349Z,8.40
2023-02-01T20:26:03.812Z,8.23
2023-02-01T20:28:33.551Z,7.94
2023-02-01T20:31:02.770Z,8.03
2023-02-01T20:33:31.321Z,7.79
2023-02-01T20:35:59.081Z,8.03
2023-02-01T20:38:26.743Z,8.19
2023-02-01T20:41:01.774Z,8.19
2023-02-01T20:43:29.333Z,7.96
2023-02-01T20:45:56.887Z,7.96
2023-02-01T20:48:24.755Z,8.07
2023-02-01T20:50:57.584Z,8.28
2023-02-01T20:53:27.134Z,8.20
2023-02-01T20:56:00.477Z,8.19
2023-02-01T20:58:28.272Z,8.36
2023-02-01T21:00:56.228Z,8.25
2023-02-01T21:03:24.442Z,8.14
2023-02-01T21:05:59.747Z,8.33
2023-02-01T21:08:29.190Z,8.19
2023-02-01T21:11:02.167Z,8.21
2023-02-01T21:13:34.657Z,8.23
2023-02-01T21:16:03.436Z,8.01
2023-02-01T21:18:32.089Z,8.12
2023-02-01T21:21:12.880Z,8.21
2023-02-01T21:23:46.297Z,8.08
2023-02-01T21:26:23.584Z,8.31
2023-02-01T21:28:53.826Z,8.02
2023-02-01T21:31:25.450Z,8.16
2023-02-01T21:33:53.305Z,8.22
2023-02-01T21:36:20.805Z,8.19
2023-02-01T21:38:51.260Z,8.07
2023-02-01T21:41:41.028Z,7.99
2023-02-01T21:44:09.463Z,8.05
2023-02-01T21:46:36.990Z,8.21
2023-02-01T21:49:06.411Z,8.08
2023-02-01T21:51:36.457Z,7.88
2023-02-01T21:54:06.257Z,8.34
2023-02-01T21:56:34.195Z,8.34
2023-02-01T21:59:01.803Z,8.24
2023-02-01T22:01:29.487Z,8.61
2023-02-01T22:03:56.978Z,8.20
2023-02-01T22:06:29.452Z,8.56
2023-02-01T22:08:57.798Z,8.44
2023-02-01T22:11:25.824Z,7.99
2023-02-01T22:13:53.768Z,8.22
2023-02-01T22:16:21.872Z,8.31
2023-02-01T22:18:51.814Z,8.02
2023-02-01T22:21:20.993Z,7.93
2023-02-01T22:23:54.303Z,8.25
2023-02-01T22:26:23.113Z,8.30
2023-02-01T22:28:51.063Z,8.52
2023-02-01T22:31:19.825Z,8.27
2023-02-01T22:33:49.225Z,8.05
2023-02-01T22:36:17.998Z,8.36
2023-02-01T22:38:47.514Z,8.46
2023-02-01T22:41:15.017Z,8.54
2023-02-01T22:43:43.612Z,8.43
2023-02-01T22:46:17.929Z,8.52
2023-02-01T22:48:47.273Z,8.56
2023-02-01T22:51:25.028Z,8.66
2023-02-01T22:53:59.906Z,8.54
2023-02-01T22:56:34.773Z,8.52
2023-02-01T22:59:11.288Z,8.32
2023-02-01T23:01:38.798Z,8.26
2023-02-01T23:04:13.258Z,8.33
2023-02-01T23:06:41.311Z,8.46
2023-02-01T23:09:16.763Z,8.39
2023-02-01T23:11:44.492Z,8.18
2023-02-01T23:14:14.300Z,8.45
2023-02-01T23:16:45.142Z,8.18
2023-02-01T23:19:13.176Z,8.38
2023-02-01T23:21:41.574Z,8.37
2023-02-01T23:24:10.729Z,8.07
2023-02-01T23:26:38.420Z,8.18
2023-02-01T23:29:06.226Z,8.41
2023-02-01T23:31:35.717Z,8.43
2023-02-01T23:34:04.249Z,8.14
2023-02-01T23:36:33.160Z,8.32
2023-02-01T23:39:01.726Z,8.33
2023-02-01T23:41:30.056Z,8.06
2023-02-01T23:43:57.647Z,8.00
2023-02-01T23:46:30.661Z,8.02
2023-02-01T23:48:59.320Z,8.23
2023-02-01T23:51:27.413Z,8.30
2023-02-01T23:53:55.738Z,8.35
2023-02-01T23:56:31.188Z,8.44
2023-02-01T23:59:00.374Z,8.28
